Time;durP1;ratioP1;P1;durP2;ratioP2;P2;SDS_P1;SDS_P2;PMS_P1;PMS_P2;Temp;Humidity;BMP_temperature;BMP_pressure;BME280_temperature;BME280_humidity;BME280_pressure;Samples;Min_cycle;Max_cycle;Signal;HPM_P1;HPM_P2
2021/03/18 00:01:56;;;;;;;6.73;4.40;;;;;;;;;;4326532;33;20273;-66
2021/03/18 00:04:22;;;;;;;7.53;5.50;;;;;;;;;;4313776;33;20413;-66
2021/03/18 00:06:47;;;;;;;10.73;6.90;;;;;;;;;;4326169;33;20226;-64
2021/03/18 00:09:17;;;;;;;9.13;6.23;;;;;;;;;;4326815;33;20392;-65
2021/03/18 00:11:43;;;;;;;8.70;6.07;;;;;;;;;;4326271;33;20302;-64
2021/03/18 00:14:13;;;;;;;7.73;5.47;;;;;;;;;;4313296;33;20305;-65
2021/03/18 00:16:40;;;;;;;8.43;5.70;;;;;;;;;;4326355;33;20602;-66
2021/03/18 00:19:06;;;;;;;9.33;5.63;;;;;;;;;;4326563;33;20230;-66
2021/03/18 00:21:32;;;;;;;6.10;4.67;;;;;;;;;;4320998;33;20309;-66
2021/03/18 00:23:57;;;;;;;5.50;4.73;;;;;;;;;;4311416;33;20345;-67
2021/03/18 00:26:28;;;;;;;7.87;5.10;;;;;;;;;;4311543;33;20262;-66
2021/03/18 00:28:54;;;;;;;7.50;4.87;;;;;;;;;;4312062;33;20304;-60
2021/03/18 00:31:22;;;;;;;5.47;3.83;;;;;;;;;;4312432;33;20243;-60
2021/03/18 00:33:48;;;;;;;5.33;3.97;;;;;;;;;;4329171;33;20645;-60
2021/03/18 00:36:14;;;;;;;6.33;3.90;;;;;;;;;;4326308;33;20267;-59
2021/03/18 00:38:40;;;;;;;6.60;5.17;;;;;;;;;;4315096;33;20285;-60
2021/03/18 00:41:08;;;;;;;5.60;4.27;;;;;;;;;;4314600;33;20395;-59
2021/03/18 00:43:33;;;;;;;4.90;3.70;;;;;;;;;;4314809;33;20204;-58
2021/03/18 00:45:59;;;;;;;7.13;4.37;;;;;;;;;;4314145;33;20664;-59
2021/03/18 00:48:24;;;;;;;5.67;4.27;;;;;;;;;;4329966;33;20297;-58
2021/03/18 00:50:56;;;;;;;5.13;4.50;;;;;;;;;;4332450;33;20249;-57
2021/03/18 00:53:25;;;;;;;9.37;4.40;;;;;;;;;;4329516;33;20411;-58
2021/03/18 00:55:52;;;;;;;6.33;4.33;;;;;;;;;;4329165;33;20289;-58
2021/03/18 00:58:18;;;;;;;6.57;4.93;;;;;;;;;;4328557;33;20379;-58
2021/03/18 01:00:48;;;;;;;5.37;3.67;;;;;;;;;;4329053;33;20672;-59
2021/03/18 01:03:14;;;;;;;4.57;4.07;;;;;;;;;;4314656;33;20216;-58
2021/03/18 01:05:46;;;;;;;5.63;3.97;;;;;;;;;;4301302;33;20640;-58
2021/03/18 01:08:13;;;;;;;5.03;4.07;;;;;;;;;;4314238;33;20371;-58
2021/03/18 01:10:51;;;;;;;6.43;4.13;;;;;;;;;;4314203;33;20255;-58
2021/03/18 01:13:19;;;;;;;4.70;3.83;;;;;;;;;;4299990;33;20314;-60
2021/03/18 01:15:57;;;;;;;6.60;4.13;;;;;;;;;;4314271;33;20254;-58
2021/03/18 01:18:28;;;;;;;5.23;4.13;;;;;;;;;;4328321;33;20789;-57
2021/03/18 01:20:54;;;;;;;4.40;3.33;;;;;;;;;;4328800;33;20258;-59
2021/03/18 01:23:20;;;;;;;7.33;4.80;;;;;;;;;;4328822;33;20270;-59
2021/03/18 01:25:45;;;;;;;5.23;4.60;;;;;;;;;;4328258;33;20231;-59
2021/03/18 01:28:12;;;;;;;5.17;4.50;;;;;;;;;;4314201;33;20306;-60
2021/03/18 01:30:40;;;;;;;4.33;3.73;;;;;;;;;;4312649;33;20261;-60
2021/03/18 01:33:07;;;;;;;6.67;4.63;;;;;;;;;;4328192;33;20875;-63
2021/03/18 01:35:34;;;;;;;7.30;5.23;;;;;;;;;;4328331;33;20617;-62
2021/03/18 01:37:59;;;;;;;5.63;4.67;;;;;;;;;;4328446;33;20341;-63
2021/03/18 01:40:30;;;;;;;6.80;4.33;;;;;;;;;;4342941;33;20222;-62
2021/03/18 01:42:56;;;;;;;4.90;4.10;;;;;;;;;;4329668;33;20419;-61
2021/03/18 01:45:22;;;;;;;7.00;4.80;;;;;;;;;;4343156;33;20297;-61
2021/03/18 01:47:51;;;;;;;6.03;4.03;;;;;;;;;;4331119;33;20206;-62
2021/03/18 01:50:19;;;;;;;7.23;4.53;;;;;;;;;;4334614;33;20222;-62
2021/03/18 01:52:45;;;;;;;6.73;5.27;;;;;;;;;;4328318;33;20393;-62
2021/03/18 01:55:23;;;;;;;8.97;6.97;;;;;;;;;;4329848;33;20293;-62
2021/03/18 01:57:48;;;;;;;9.23;6.83;;;;;;;;;;4329029;33;20203;-62
2021/03/18 02:00:15;;;;;;;10.83;8.17;;;;;;;;;;4328155;33;20285;-63
2021/03/18 02:02:40;;;;;;;8.80;5.87;;;;;;;;;;4316582;33;20648;-61
2021/03/18 02:05:06;;;;;;;10.90;5.40;;;;;;;;;;4313662;33;20243;-60
2021/03/18 02:07:32;;;;;;;8.40;5.93;;;;;;;;;;4313372;33;20361;-61
2021/03/18 02:09:57;;;;;;;7.23;4.80;;;;;;;;;;4313125;33;20219;-61
2021/03/18 02:12:23;;;;;;;6.20;5.20;;;;;;;;;;4313338;33;20282;-60
2021/03/18 02:14:49;;;;;;;10.57;5.40;;;;;;;;;;4313506;33;20247;-59
2021/03/18 02:17:22;;;;;;;7.57;6.03;;;;;;;;;;4314977;33;20318;-60
2021/03/18 02:20:02;;;;;;;9.40;6.17;;;;;;;;;;4327436;33;20230;-61
2021/03/18 02:22:56;;;;;;;7.13;5.83;;;;;;;;;;4328536;33;20211;-61
2021/03/18 02:25:27;;;;;;;8.17;6.27;;;;;;;;;;4328303;33;20310;-63
2021/03/18 02:28:29;;;;;;;6.20;4.90;;;;;;;;;;4327443;33;20273;-62
2021/03/18 02:31:16;;;;;;;8.60;5.80;;;;;;;;;;4314788;33;20297;-61
2021/03/18 02:33:42;;;;;;;9.80;6.83;;;;;;;;;;4313632;33;20317;-61
2021/03/18 02:36:14;;;;;;;8.63;6.37;;;;;;;;;;4313599;33;20553;-61
2021/03/18 02:38:42;;;;;;;7.30;5.37;;;;;;;;;;4313520;33;20513;-61
2021/03/18 02:41:20;;;;;;;7.20;5.33;;;;;;;;;;4313361;33;20262;-60
2021/03/18 02:43:50;;;;;;;9.10;6.33;;;;;;;;;;4313317;33;20295;-60
2021/03/18 02:46:16;;;;;;;12.90;8.77;;;;;;;;;;4314244;33;20678;-60
2021/03/18 02:48:43;;;;;;;12.83;8.20;;;;;;;;;;4333963;33;20305;-60
2021/03/18 02:51:16;;;;;;;7.90;5.23;;;;;;;;;;4332001;33;20245;-61
2021/03/18 02:53:44;;;;;;;7.67;5.93;;;;;;;;;;4327916;33;20230;-61
2021/03/18 02:56:12;;;;;;;8.27;6.57;;;;;;;;;;4326709;33;20310;-62
2021/03/18 02:58:40;;;;;;;11.80;7.80;;;;;;;;;;4327268;33;20234;-61
2021/03/18 03:01:08;;;;;;;12.70;7.37;;;;;;;;;;4327712;33;20226;-62
2021/03/18 03:03:35;;;;;;;7.60;5.97;;;;;;;;;;4314317;33;20361;-62
2021/03/18 03:06:04;;;;;;;9.47;7.20;;;;;;;;;;4327700;33;20245;-61
2021/03/18 03:08:30;;;;;;;8.87;6.33;;;;;;;;;;4327900;33;20322;-62
2021/03/18 03:10:59;;;;;;;7.20;6.30;;;;;;;;;;4327132;33;20219;-67
2021/03/18 03:13:30;;;;;;;7.27;6.20;;;;;;;;;;4313815;33;20620;-64
2021/03/18 03:15:57;;;;;;;7.80;6.50;;;;;;;;;;4301831;33;20231;-62
2021/03/18 03:18:24;;;;;;;7.63;6.63;;;;;;;;;;4327437;33;20222;-62
2021/03/18 03:20:54;;;;;;;8.00;6.07;;;;;;;;;;4327289;33;20301;-64
2021/03/18 03:23:23;;;;;;;8.83;6.27;;;;;;;;;;4326206;33;20565;-62
2021/03/18 03:25:49;;;;;;;13.77;6.47;;;;;;;;;;4327159;33;20231;-59
2021/03/18 03:28:15;;;;;;;10.57;6.83;;;;;;;;;;4327129;33;20308;-60
2021/03/18 03:30:41;;;;;;;9.47;7.47;;;;;;;;;;4327083;33;20226;-60
2021/03/18 03:33:08;;;;;;;8.47;6.97;;;;;;;;;;4327181;33;20293;-60
2021/03/18 03:35:34;;;;;;;7.77;6.97;;;;;;;;;;4327073;33;20641;-62
2021/03/18 03:38:00;;;;;;;7.00;6.17;;;;;;;;;;4327282;33;20290;-64
2021/03/18 03:40:25;;;;;;;12.03;7.10;;;;;;;;;;4313586;33;20561;-64
2021/03/18 03:42:51;;;;;;;7.63;6.40;;;;;;;;;;4327065;33;20306;-63
2021/03/18 03:45:17;;;;;;;7.93;6.47;;;;;;;;;;4327297;33;20329;-60
2021/03/18 03:47:43;;;;;;;11.33;6.77;;;;;;;;;;4332365;33;20623;-60
2021/03/18 03:50:12;;;;;;;7.53;6.70;;;;;;;;;;4329041;33;20227;-59
2021/03/18 03:53:09;;;;;;;8.40;7.13;;;;;;;;;;4327071;33;20668;-59
2021/03/18 03:55:37;;;;;;;13.00;7.53;;;;;;;;;;4307588;33;20289;-58
2021/03/18 03:58:12;;;;;;;9.43;6.93;;;;;;;;;;4326726;33;20223;-60
2021/03/18 04:00:40;;;;;;;9.97;7.67;;;;;;;;;;4327424;33;20238;-60
2021/03/18 04:03:08;;;;;;;22.27;8.40;;;;;;;;;;4327145;33;20698;-60
2021/03/18 04:05:37;;;;;;;12.73;8.90;;;;;;;;;;4313504;33;20370;-60
2021/03/18 04:08:07;;;;;;;13.93;9.87;;;;;;;;;;4329740;33;20290;-61
2021/03/18 04:10:35;;;;;;;14.03;10.00;;;;;;;;;;4316405;33;20329;-62
2021/03/18 04:13:01;;;;;;;9.67;7.40;;;;;;;;;;4329976;33;20609;-62
2021/03/18 04:15:32;;;;;;;15.60;9.37;;;;;;;;;;4316589;33;20268;-62
2021/03/18 04:18:00;;;;;;;9.20;7.53;;;;;;;;;;4329862;33;20660;-63
2021/03/18 04:20:27;;;;;;;11.57;7.17;;;;;;;;;;4329800;33;20660;-60
2021/03/18 04:22:56;;;;;;;8.30;6.70;;;;;;;;;;4329890;33;20262;-64
2021/03/18 04:25:24;;;;;;;15.87;9.60;;;;;;;;;;4329966;33;20314;-63
2021/03/18 04:27:51;;;;;;;11.13;8.30;;;;;;;;;;4328447;33;20318;-64
2021/03/18 04:30:19;;;;;;;13.53;9.27;;;;;;;;;;4329703;33;20320;-62
2021/03/18 04:32:46;;;;;;;13.07;8.43;;;;;;;;;;4320716;33;20240;-61
2021/03/18 04:35:13;;;;;;;16.70;9.83;;;;;;;;;;4314647;33;20298;-62
2021/03/18 04:37:39;;;;;;;23.33;12.33;;;;;;;;;;4313880;33;20341;-62
2021/03/18 04:40:07;;;;;;;20.13;11.93;;;;;;;;;;4315308;33;20219;-62
2021/03/18 04:42:35;;;;;;;15.27;10.20;;;;;;;;;;4328964;33;20281;-60
2021/03/18 04:45:02;;;;;;;14.90;9.63;;;;;;;;;;4316366;33;20270;-60
2021/03/18 04:47:29;;;;;;;10.13;8.30;;;;;;;;;;4334011;33;20215;-60
2021/03/18 04:49:55;;;;;;;14.67;8.90;;;;;;;;;;4332311;33;20762;-61
2021/03/18 04:52:21;;;;;;;13.27;8.23;;;;;;;;;;4329485;33;20298;-62
2021/03/18 04:54:47;;;;;;;15.60;9.67;;;;;;;;;;4316301;33;20245;-60
2021/03/18 04:57:18;;;;;;;15.93;10.43;;;;;;;;;;4328668;33;20344;-60
2021/03/18 04:59:45;;;;;;;14.50;9.87;;;;;;;;;;4329479;33;20231;-59
2021/03/18 05:02:12;;;;;;;12.27;8.80;;;;;;;;;;4329238;33;20199;-58
2021/03/18 05:04:40;;;;;;;10.70;8.03;;;;;;;;;;4315948;33;20324;-60
2021/03/18 05:07:06;;;;;;;9.13;7.53;;;;;;;;;;4329579;33;20203;-60
2021/03/18 05:09:33;;;;;;;14.63;8.73;;;;;;;;;;4329380;33;20249;-61
2021/03/18 05:12:00;;;;;;;14.20;9.43;;;;;;;;;;4328809;33;20215;-63
2021/03/18 05:14:26;;;;;;;12.27;8.57;;;;;;;;;;4329379;33;20249;-64
2021/03/18 05:16:54;;;;;;;12.10;7.50;;;;;;;;;;4328787;33;20270;-64
2021/03/18 05:19:19;;;;;;;11.50;7.80;;;;;;;;;;4328843;33;20215;-61
2021/03/18 05:21:46;;;;;;;15.43;8.57;;;;;;;;;;4328678;33;20290;-61
2021/03/18 05:24:13;;;;;;;14.17;9.07;;;;;;;;;;4328618;33;20278;-60
2021/03/18 05:26:40;;;;;;;16.87;8.63;;;;;;;;;;4315615;33;20373;-59
2021/03/18 05:29:06;;;;;;;15.20;8.43;;;;;;;;;;4328790;33;20210;-63
2021/03/18 05:31:32;;;;;;;10.30;6.73;;;;;;;;;;4327653;33;20290;-62
2021/03/18 05:33:59;;;;;;;13.70;7.97;;;;;;;;;;4328414;33;20715;-59
2021/03/18 05:36:25;;;;;;;12.83;8.17;;;;;;;;;;4315772;33;20242;-59
2021/03/18 05:38:50;;;;;;;11.70;8.63;;;;;;;;;;4315927;33;20345;-59
2021/03/18 05:41:17;;;;;;;14.00;8.23;;;;;;;;;;4329113;33;20572;-61
2021/03/18 05:43:43;;;;;;;10.87;7.43;;;;;;;;;;4316142;33;20235;-58
2021/03/18 05:46:09;;;;;;;15.87;9.10;;;;;;;;;;4329956;33;20609;-59
2021/03/18 05:48:36;;;;;;;14.67;9.33;;;;;;;;;;4336965;33;20274;-59
2021/03/18 05:51:03;;;;;;;18.07;8.97;;;;;;;;;;4338617;33;21105;-60
2021/03/18 05:53:29;;;;;;;27.63;16.13;;;;;;;;;;4329198;33;20238;-59
2021/03/18 05:55:56;;;;;;;19.50;9.83;;;;;;;;;;4328892;33;20222;-59
2021/03/18 05:58:24;;;;;;;20.13;12.97;;;;;;;;;;4315405;33;20328;-59
2021/03/18 06:00:51;;;;;;;19.47;11.10;;;;;;;;;;4329155;33;20250;-60
2021/03/18 06:03:20;;;;;;;42.47;22.10;;;;;;;;;;4315770;33;20290;-60
2021/03/18 06:05:46;;;;;;;25.90;14.63;;;;;;;;;;4329102;33;20765;-60
2021/03/18 06:08:13;;;;;;;20.30;12.47;;;;;;;;;;4327452;33;20669;-64
2021/03/18 06:10:39;;;;;;;16.83;11.20;;;;;;;;;;4313931;33;20266;-62
2021/03/18 06:13:04;;;;;;;21.23;13.87;;;;;;;;;;4301508;33;20763;-64
2021/03/18 06:15:30;;;;;;;19.03;11.40;;;;;;;;;;4314511;33;20365;-65
2021/03/18 06:17:57;;;;;;;17.13;11.20;;;;;;;;;;4307271;33;20282;-68
2021/03/18 06:20:28;;;;;;;25.30;12.47;;;;;;;;;;4300006;33;20306;-66
2021/03/18 06:22:54;;;;;;;16.17;11.03;;;;;;;;;;4286626;33;20236;-66
2021/03/18 06:25:22;;;;;;;21.23;14.17;;;;;;;;;;4312612;33;20376;-66
2021/03/18 06:27:48;;;;;;;12.43;9.10;;;;;;;;;;4314365;33;20278;-65
2021/03/18 06:30:15;;;;;;;12.33;8.07;;;;;;;;;;4313499;33;20334;-64
2021/03/18 06:32:40;;;;;;;13.20;7.77;;;;;;;;;;4316688;33;20574;-64
2021/03/18 06:35:09;;;;;;;16.93;8.57;;;;;;;;;;4323595;33;20289;-64
2021/03/18 06:37:38;;;;;;;29.10;21.53;;;;;;;;;;4305047;33;20669;-62
2021/03/18 06:40:18;;;;;;;33.80;20.20;;;;;;;;;;4311715;33;20239;-66
2021/03/18 06:43:00;;;;;;;18.80;11.60;;;;;;;;;;4312278;33;20208;-64
2021/03/18 06:45:31;;;;;;;12.50;8.67;;;;;;;;;;4311330;33;20286;-62
2021/03/18 06:48:05;;;;;;;20.00;13.70;;;;;;;;;;4305076;33;20246;-60
2021/03/18 06:50:37;;;;;;;13.77;9.37;;;;;;;;;;4313121;33;20231;-60
2021/03/18 06:53:16;;;;;;;18.57;12.00;;;;;;;;;;4314025;33;20629;-60
2021/03/18 06:55:42;;;;;;;13.07;9.17;;;;;;;;;;4320545;33;20863;-59
2021/03/18 06:58:18;;;;;;;12.37;8.03;;;;;;;;;;4322986;33;20291;-61
2021/03/18 07:00:53;;;;;;;16.73;10.80;;;;;;;;;;4321127;33;20325;-60
2021/03/18 07:03:39;;;;;;;16.60;10.77;;;;;;;;;;4313940;33;20214;-59
2021/03/18 07:06:07;;;;;;;13.60;10.13;;;;;;;;;;4327253;33;20235;-59
2021/03/18 07:08:35;;;;;;;13.87;9.10;;;;;;;;;;4316640;33;20372;-60
2021/03/18 07:11:16;;;;;;;13.53;7.57;;;;;;;;;;4333436;33;20265;-59
2021/03/18 07:13:42;;;;;;;14.30;9.93;;;;;;;;;;4313291;33;20231;-61
2021/03/18 07:16:10;;;;;;;17.33;12.10;;;;;;;;;;4337520;33;20356;-60
2021/03/18 07:18:38;;;;;;;14.47;10.53;;;;;;;;;;4330893;33;20218;-61
2021/03/18 07:21:13;;;;;;;15.27;10.57;;;;;;;;;;4327659;33;20227;-64
2021/03/18 07:23:44;;;;;;;20.67;12.33;;;;;;;;;;4326638;33;20600;-63
2021/03/18 07:26:21;;;;;;;21.87;9.13;;;;;;;;;;4324930;33;20231;-61
2021/03/18 07:29:12;;;;;;;32.47;19.40;;;;;;;;;;4327388;33;20664;-63
2021/03/18 07:31:38;;;;;;;50.13;35.90;;;;;;;;;;4316542;33;20306;-63
2021/03/18 07:34:06;;;;;;;32.90;26.67;;;;;;;;;;4313723;33;20318;-65
2021/03/18 07:36:32;;;;;;;23.77;16.97;;;;;;;;;;4326708;33;20301;-63
2021/03/18 07:38:57;;;;;;;22.60;14.17;;;;;;;;;;4319799;33;20289;-64
2021/03/18 07:41:23;;;;;;;10.53;7.97;;;;;;;;;;4312738;33;20227;-62
2021/03/18 07:43:50;;;;;;;9.23;7.50;;;;;;;;;;4299712;33;20381;-62
2021/03/18 07:46:18;;;;;;;14.13;9.47;;;;;;;;;;4309574;33;20268;-64
2021/03/18 07:48:48;;;;;;;9.00;7.10;;;;;;;;;;4326560;33;20207;-63
2021/03/18 07:51:14;;;;;;;10.33;8.27;;;;;;;;;;4332527;33;20243;-63
2021/03/18 07:53:41;;;;;;;8.83;7.47;;;;;;;;;;4312456;33;20290;-64
2021/03/18 07:56:12;;;;;;;12.70;8.83;;;;;;;;;;4324758;33;20392;-65
2021/03/18 07:58:40;;;;;;;12.97;10.33;;;;;;;;;;4311779;33;20227;-64
2021/03/18 08:01:06;;;;;;;18.47;11.47;;;;;;;;;;4330607;33;20282;-65
2021/03/18 08:03:32;;;;;;;9.73;7.90;;;;;;;;;;4326670;33;20273;-66
2021/03/18 08:05:58;;;;;;;7.90;5.27;;;;;;;;;;4319421;33;20758;-65
2021/03/18 08:08:33;;;;;;;13.07;10.17;;;;;;;;;;4313561;33;20231;-65
2021/03/18 08:11:20;;;;;;;16.20;10.03;;;;;;;;;;4309817;33;20238;-66
2021/03/18 08:13:46;;;;;;;20.33;13.43;;;;;;;;;;4312122;33;20235;-64
2021/03/18 08:16:26;;;;;;;15.63;10.60;;;;;;;;;;4321463;33;20326;-64
2021/03/18 08:18:52;;;;;;;16.77;11.63;;;;;;;;;;4319532;33;20344;-65
2021/03/18 08:21:18;;;;;;;23.27;14.47;;;;;;;;;;4324162;33;20247;-65
2021/03/18 08:23:47;;;;;;;26.80;18.33;;;;;;;;;;4318592;33;20302;-65
2021/03/18 08:26:20;;;;;;;22.27;14.17;;;;;;;;;;4317812;33;20633;-64
2021/03/18 08:28:58;;;;;;;17.43;11.17;;;;;;;;;;4305416;33;20231;-64
2021/03/18 08:31:45;;;;;;;14.60;9.87;;;;;;;;;;4324685;33;20277;-63
2021/03/18 08:34:11;;;;;;;11.23;7.60;;;;;;;;;;4325527;33;20269;-63
2021/03/18 08:36:58;;;;;;;15.00;9.83;;;;;;;;;;4325014;33;20273;-64
2021/03/18 08:39:41;;;;;;;12.23;7.83;;;;;;;;;;4312973;33;20289;-64
2021/03/18 08:42:28;;;;;;;16.77;13.77;;;;;;;;;;4318451;33;20243;-65
2021/03/18 08:45:03;;;;;;;20.53;13.20;;;;;;;;;;4323491;33;20234;-63
2021/03/18 08:47:39;;;;;;;18.33;15.93;;;;;;;;;;4312232;33;20310;-66
2021/03/18 08:50:11;;;;;;;9.20;7.03;;;;;;;;;;4311822;33;20250;-68
2021/03/18 08:52:40;;;;;;;21.13;14.50;;;;;;;;;;4312885;33;20223;-61
2021/03/18 08:55:11;;;;;;;12.43;7.10;;;;;;;;;;4323816;33;20255;-67
2021/03/18 08:57:37;;;;;;;16.67;12.57;;;;;;;;;;4314565;33;20675;-71
2021/03/18 09:00:18;;;;;;;11.73;9.40;;;;;;;;;;4309067;33;20258;-71
2021/03/18 09:02:44;;;;;;;16.93;9.83;;;;;;;;;;4320522;33;20291;-70
2021/03/18 09:05:13;;;;;;;12.40;9.27;;;;;;;;;;4318817;33;20244;-66
2021/03/18 09:07:39;;;;;;;13.47;9.87;;;;;;;;;;4324404;33;20600;-68
2021/03/18 09:10:13;;;;;;;18.40;10.40;;;;;;;;;;4308942;33;20286;-65
2021/03/18 09:13:08;;;;;;;13.20;9.73;;;;;;;;;;4324636;33;20274;-65
2021/03/18 09:15:38;;;;;;;8.70;7.67;;;;;;;;;;4338126;33;20245;-64
2021/03/18 09:18:18;;;;;;;12.80;8.87;;;;;;;;;;4333458;33;20723;-60
2021/03/18 09:20:50;;;;;;;6.23;4.97;;;;;;;;;;4331714;33;20272;-63
2021/03/18 09:23:22;;;;;;;12.07;9.37;;;;;;;;;;4338894;33;20220;-62
2021/03/18 09:25:49;;;;;;;15.03;10.50;;;;;;;;;;4334032;33;20290;-62
2021/03/18 09:28:16;;;;;;;14.10;10.13;;;;;;;;;;4328055;33;20261;-63
2021/03/18 09:30:43;;;;;;;19.37;13.73;;;;;;;;;;4331037;33;20677;-63
2021/03/18 09:33:35;;;;;;;9.57;6.00;;;;;;;;;;4323258;33;20246;-63
2021/03/18 09:36:18;;;;;;;24.10;14.07;;;;;;;;;;4321430;33;20337;-65
2021/03/18 09:38:57;;;;;;;12.50;8.23;;;;;;;;;;4325364;33;20282;-66
2021/03/18 09:41:25;;;;;;;23.97;15.23;;;;;;;;;;4316155;33;20326;-65
2021/03/18 09:44:04;;;;;;;19.17;10.13;;;;;;;;;;4330241;33;20207;-64
2021/03/18 09:46:31;;;;;;;11.73;7.00;;;;;;;;;;4334332;33;20235;-64
2021/03/18 09:48:57;;;;;;;7.23;6.30;;;;;;;;;;4316272;33;20242;-66
2021/03/18 09:51:22;;;;;;;11.43;6.83;;;;;;;;;;4333573;33;20393;-64
2021/03/18 09:53:59;;;;;;;12.80;8.20;;;;;;;;;;4327521;33;20314;-64
2021/03/18 09:56:26;;;;;;;13.60;9.80;;;;;;;;;;4327879;33;20246;-64
2021/03/18 09:58:52;;;;;;;32.70;14.70;;;;;;;;;;4333441;33;20290;-65
2021/03/18 10:01:24;;;;;;;30.53;19.40;;;;;;;;;;4320042;33;20337;-66
2021/03/18 10:03:54;;;;;;;27.77;17.10;;;;;;;;;;4333360;33;20222;-68
2021/03/18 10:06:31;;;;;;;15.93;8.77;;;;;;;;;;4331120;33;20338;-62
2021/03/18 10:09:21;;;;;;;13.87;8.13;;;;;;;;;;4323425;33;20268;-64
2021/03/18 10:11:49;;;;;;;25.07;14.43;;;;;;;;;;4315271;33;20283;-63
2021/03/18 10:14:17;;;;;;;14.30;9.13;;;;;;;;;;4330420;33;20568;-63
2021/03/18 10:16:45;;;;;;;7.00;5.97;;;;;;;;;;4328215;33;20334;-63
2021/03/18 10:19:11;;;;;;;6.17;5.20;;;;;;;;;;4330026;33;20273;-61
2021/03/18 10:21:39;;;;;;;14.97;9.23;;;;;;;;;;4325129;33;20268;-62
2021/03/18 10:24:06;;;;;;;10.17;7.40;;;;;;;;;;4333790;33;20219;-62
2021/03/18 10:26:32;;;;;;;8.27;6.20;;;;;;;;;;4315326;33;20231;-62
2021/03/18 10:29:01;;;;;;;5.43;4.30;;;;;;;;;;4322565;33;20375;-63
2021/03/18 10:31:27;;;;;;;16.97;11.43;;;;;;;;;;4329649;33;20286;-62
2021/03/18 10:33:53;;;;;;;12.23;8.23;;;;;;;;;;4326327;33;20322;-63
2021/03/18 10:36:39;;;;;;;12.40;8.73;;;;;;;;;;4322485;33;20336;-62
2021/03/18 10:39:12;;;;;;;6.17;4.73;;;;;;;;;;4316937;33;20368;-63
2021/03/18 10:42:01;;;;;;;6.67;4.90;;;;;;;;;;4334488;33;20274;-64
2021/03/18 10:44:38;;;;;;;9.80;6.23;;;;;;;;;;4322669;33;20227;-63
2021/03/18 10:47:23;;;;;;;14.00;6.03;;;;;;;;;;4326633;33;20249;-62
2021/03/18 10:50:06;;;;;;;6.07;5.43;;;;;;;;;;4326838;33;20281;-64
2021/03/18 10:52:34;;;;;;;8.50;5.60;;;;;;;;;;4320996;33;20329;-66
2021/03/18 10:55:00;;;;;;;14.33;5.30;;;;;;;;;;4322719;33;20299;-61
2021/03/18 10:57:26;;;;;;;7.10;4.53;;;;;;;;;;4328196;33;20337;-62
2021/03/18 11:00:05;;;;;;;6.27;4.43;;;;;;;;;;4316657;33;20346;-63
2021/03/18 11:02:31;;;;;;;7.33;6.17;;;;;;;;;;4315588;33;20243;-64
2021/03/18 11:05:02;;;;;;;11.47;6.40;;;;;;;;;;4328045;33;20251;-63
2021/03/18 11:07:29;;;;;;;153.03;80.27;;;;;;;;;;4320202;33;20339;-66
2021/03/18 11:10:15;;;;;;;45.20;22.80;;;;;;;;;;4327244;33;20242;-65
2021/03/18 11:12:57;;;;;;;21.67;12.00;;;;;;;;;;4324566;33;20265;-65
2021/03/18 11:15:22;;;;;;;10.70;7.27;;;;;;;;;;4320937;33;20359;-67
2021/03/18 11:18:08;;;;;;;9.63;7.00;;;;;;;;;;4330011;33;20373;-66
2021/03/18 11:20:36;;;;;;;17.30;9.17;;;;;;;;;;4327117;33;20298;-67
2021/03/18 11:23:02;;;;;;;37.83;17.57;;;;;;;;;;4315863;33;20250;-68
2021/03/18 11:25:28;;;;;;;34.60;16.47;;;;;;;;;;4330648;33;20597;-68
2021/03/18 11:27:54;;;;;;;34.23;20.00;;;;;;;;;;4326239;33;20306;-66
2021/03/18 11:30:27;;;;;;;41.80;19.73;;;;;;;;;;4323290;33;20246;-67
2021/03/18 11:33:20;;;;;;;24.07;15.47;;;;;;;;;;4326510;33;20782;-65
2021/03/18 11:35:48;;;;;;;24.50;15.37;;;;;;;;;;4335197;33;20285;-64
2021/03/18 11:38:15;;;;;;;13.37;9.83;;;;;;;;;;4318585;33;20680;-62
2021/03/18 11:40:42;;;;;;;18.37;10.87;;;;;;;;;;4333535;33;20219;-62
2021/03/18 11:43:08;;;;;;;13.10;10.00;;;;;;;;;;4334606;33;20242;-64
2021/03/18 11:45:34;;;;;;;13.23;9.47;;;;;;;;;;4325077;33;20266;-64
2021/03/18 11:48:01;;;;;;;26.97;17.30;;;;;;;;;;4316780;33;20348;-62
2021/03/18 11:50:27;;;;;;;25.23;16.53;;;;;;;;;;4312847;33;20290;-62
2021/03/18 11:52:53;;;;;;;16.50;12.00;;;;;;;;;;4329180;33;20734;-63
2021/03/18 11:55:19;;;;;;;13.57;5.93;;;;;;;;;;4329638;33;20223;-63
2021/03/18 11:57:46;;;;;;;15.80;10.13;;;;;;;;;;4316883;33;20353;-63
2021/03/18 12:00:11;;;;;;;13.37;9.30;;;;;;;;;;4332097;33;20336;-63
2021/03/18 12:02:37;;;;;;;12.33;8.37;;;;;;;;;;4332454;33;20294;-61
2021/03/18 12:05:04;;;;;;;12.63;8.47;;;;;;;;;;4299619;33;20388;-64
2021/03/18 12:07:29;;;;;;;14.27;7.17;;;;;;;;;;4293058;33;20338;-63
2021/03/18 12:09:55;;;;;;;9.43;7.20;;;;;;;;;;4312392;33;20258;-63
2021/03/18 12:12:20;;;;;;;6.97;5.43;;;;;;;;;;4298569;33;20336;-66
2021/03/18 12:14:46;;;;;;;7.10;5.83;;;;;;;;;;4316995;33;20756;-61
2021/03/18 12:17:11;;;;;;;14.20;6.07;;;;;;;;;;4298456;33;20751;-65
2021/03/18 12:19:37;;;;;;;12.30;7.73;;;;;;;;;;4309195;33;20355;-66
2021/03/18 12:22:03;;;;;;;11.70;6.50;;;;;;;;;;4311348;33;20703;-65
2021/03/18 12:24:29;;;;;;;8.23;6.27;;;;;;;;;;4304996;33;20250;-66
2021/03/18 12:26:54;;;;;;;10.90;7.80;;;;;;;;;;4298314;33;20688;-66
2021/03/18 12:29:20;;;;;;;9.97;8.07;;;;;;;;;;4314477;33;20282;-67
2021/03/18 12:31:45;;;;;;;12.10;9.13;;;;;;;;;;4315196;33;20238;-64
2021/03/18 12:34:11;;;;;;;11.10;7.77;;;;;;;;;;4307789;33;20339;-65
2021/03/18 12:36:37;;;;;;;7.30;5.90;;;;;;;;;;4312194;33;20261;-64
2021/03/18 12:39:04;;;;;;;12.40;7.97;;;;;;;;;;4315064;33;20402;-66
2021/03/18 12:41:32;;;;;;;8.53;6.07;;;;;;;;;;4310429;33;20324;-66
2021/03/18 12:43:59;;;;;;;11.93;5.93;;;;;;;;;;4308683;33;20868;-66
2021/03/18 12:46:25;;;;;;;9.17;5.47;;;;;;;;;;4314610;33;20247;-68
2021/03/18 12:48:51;;;;;;;22.83;13.37;;;;;;;;;;4314455;33;20748;-65
2021/03/18 12:51:16;;;;;;;11.23;8.20;;;;;;;;;;4312871;33;20265;-66
2021/03/18 12:53:42;;;;;;;11.07;8.23;;;;;;;;;;4309809;33;20429;-66
2021/03/18 12:56:07;;;;;;;11.23;7.50;;;;;;;;;;4307365;33;20665;-65
2021/03/18 12:58:33;;;;;;;10.03;6.70;;;;;;;;;;4312662;33;20817;-66
2021/03/18 13:00:59;;;;;;;9.87;7.13;;;;;;;;;;4311825;33;20665;-67
2021/03/18 13:03:26;;;;;;;12.83;9.47;;;;;;;;;;4297266;33;20297;-66
2021/03/18 13:05:51;;;;;;;13.73;9.93;;;;;;;;;;4311616;33;20269;-68
2021/03/18 13:08:17;;;;;;;6.83;6.10;;;;;;;;;;4315646;33;20345;-67
2021/03/18 13:10:44;;;;;;;7.13;6.43;;;;;;;;;;4314957;33;20286;-66
2021/03/18 13:13:09;;;;;;;10.93;7.43;;;;;;;;;;4313712;33;20652;-67
2021/03/18 13:15:35;;;;;;;18.60;8.73;;;;;;;;;;4314408;33;20223;-67
2021/03/18 13:18:00;;;;;;;15.60;11.47;;;;;;;;;;4300513;33;20791;-66
2021/03/18 13:20:26;;;;;;;18.17;12.63;;;;;;;;;;4313273;33;20262;-67
2021/03/18 13:22:52;;;;;;;22.47;17.63;;;;;;;;;;4313155;33;20830;-66
2021/03/18 13:25:18;;;;;;;18.37;12.53;;;;;;;;;;4298947;33;20262;-67
2021/03/18 13:27:45;;;;;;;19.07;13.37;;;;;;;;;;4298058;33;20242;-64
2021/03/18 13:30:17;;;;;;;25.13;17.00;;;;;;;;;;4313171;33;20828;-67
2021/03/18 13:32:43;;;;;;;16.13;11.37;;;;;;;;;;4314351;33;20295;-70
2021/03/18 13:35:09;;;;;;;34.03;20.17;;;;;;;;;;4305182;33;20227;-70
2021/03/18 13:37:35;;;;;;;22.90;14.83;;;;;;;;;;4313840;33;20238;-67
2021/03/18 13:40:02;;;;;;;25.53;16.77;;;;;;;;;;4313940;33;20257;-66
2021/03/18 13:42:28;;;;;;;25.50;16.87;;;;;;;;;;4314912;33;20246;-66
2021/03/18 13:44:54;;;;;;;43.17;25.10;;;;;;;;;;4314584;33;20215;-67
2021/03/18 13:47:20;;;;;;;33.37;19.63;;;;;;;;;;4302608;33;20286;-65
2021/03/18 13:49:46;;;;;;;26.67;17.33;;;;;;;;;;4300971;33;20261;-67
2021/03/18 13:52:12;;;;;;;17.87;13.03;;;;;;;;;;4315302;33;20314;-64
2021/03/18 13:54:38;;;;;;;19.67;13.67;;;;;;;;;;4317554;33;20265;-66
2021/03/18 13:57:04;;;;;;;15.53;11.73;;;;;;;;;;4298786;33;20309;-66
2021/03/18 13:59:30;;;;;;;19.13;14.40;;;;;;;;;;4312305;33;20341;-66
2021/03/18 14:01:56;;;;;;;13.13;10.70;;;;;;;;;;4312444;33;20298;-65
2021/03/18 14:04:21;;;;;;;16.73;11.80;;;;;;;;;;4301913;33;20258;-64
2021/03/18 14:06:47;;;;;;;15.87;12.63;;;;;;;;;;4300984;33;20267;-66
2021/03/18 14:09:12;;;;;;;19.57;14.67;;;;;;;;;;4309461;33;20342;-66
2021/03/18 14:11:39;;;;;;;13.47;9.13;;;;;;;;;;4307626;33;20276;-65
2021/03/18 14:14:05;;;;;;;27.03;14.30;;;;;;;;;;4324496;33;20398;-66
2021/03/18 14:16:30;;;;;;;15.57;10.10;;;;;;;;;;4312371;33;20372;-64
2021/03/18 14:18:56;;;;;;;17.03;13.03;;;;;;;;;;4311065;33;20739;-64
2021/03/18 14:21:22;;;;;;;17.03;12.67;;;;;;;;;;4314156;33;20392;-64
2021/03/18 14:23:48;;;;;;;19.03;13.87;;;;;;;;;;4309637;33;20286;-64
2021/03/18 14:26:13;;;;;;;18.13;12.93;;;;;;;;;;4312566;33;20230;-66
2021/03/18 14:28:39;;;;;;;20.37;14.37;;;;;;;;;;4312718;33;20223;-66
2021/03/18 14:31:06;;;;;;;24.17;12.53;;;;;;;;;;4313780;33;20385;-65
2021/03/18 14:33:32;;;;;;;22.80;16.47;;;;;;;;;;4297445;33;20228;-65
2021/03/18 14:35:57;;;;;;;23.90;16.03;;;;;;;;;;4309529;33;20235;-65
2021/03/18 14:38:23;;;;;;;15.43;11.07;;;;;;;;;;4320625;33;20488;-63
2021/03/18 14:40:48;;;;;;;18.10;12.33;;;;;;;;;;4307868;33;20510;-65
2021/03/18 14:43:15;;;;;;;24.50;17.13;;;;;;;;;;4312657;33;20207;-68